New Century 1 — H9LA — position and weather

sailwx.info

Track history (hours):
 
Tides and Currents Weather Stations Pressure Air Temp Water Temp Dewpoint Dewpoint Depression Visibility Wind Speed Wind Dir Waves Ship Positions

New Century 1

Last reported at 2015-Jul-17 11:17 UTC. Time now 2015-Jul-28 03:29 UTC.
Position N 37°46' W 071°28'.
Warning: this ship's position is 10 days out of date.

Length 200 m; beam 32.3 m.

Type: Cargo ship. MMSI: 355234000.

Date/timePositionNaut miles runAvg speedWind from/ knotsBaromVisibWave heightAir tempDewpointWater temp
2015-Jul-17 11:17N 37°46' W 071°28'1516.8
2015-Jul-17 10:24N 37°58' W 071°39'1617.5
2015-Jul-17 09:30N 38°11' W 071°50'1817.3
2015-Jul-17 08:26N 38°27' W 072°03'1517.3
2015-Jul-17 07:33N 38°40' W 072°14'1717.2
2015-Jul-17 06:34N 38°54' W 072°26'1717.2
2015-Jul-17 05:33N 39°08' W 072°38'1717.3
2015-Jul-17 04:33N 39°23' W 072°50'1717.2
2015-Jul-17 03:33N 39°37' W 073°02'1717.3
2015-Jul-17 02:34N 39°52' W 073°15'1717.4
2015-Jul-17 01:34N 40°06' W 073°28'1717.3
2015-Jul-17 00:34N 40°20' W 073°41'1212.3
2015-Jul-16 23:33N 40°28' W 073°53'1010.5
2015-Jul-16 22:33N 40°36' W 074°03'6 5.9
2015-Jul-16 21:33N 40°39' W 074°09'2 2.4
2015-Jul-16 20:33N 40°41' W 074°08'0 0.0
2015-Jul-16 19:33N 40°41' W 074°08'0 0.0
2015-Jul-16 18:33N 40°41' W 074°08'0 0.0
2015-Jul-16 17:30N 40°41' W 074°08'0 0.0
2015-Jul-16 16:33N 40°41' W 074°08'0 0.0
2015-Jul-16 15:33N 40°41' W 074°08'0 0.0
2015-Jul-16 14:33N 40°41' W 074°08'0 0.0
2015-Jul-16 13:33N 40°41' W 074°08'0 0.0
2015-Jul-16 12:33N 40°41' W 074°08'0 0.0
2015-Jul-16 11:33N 40°41' W 074°08'0 0.0
2015-Jul-16 10:30N 40°41' W 074°08'0 0.0
2015-Jul-16 09:33N 40°41' W 074°08'0 0.0
2015-Jul-16 08:33N 40°41' W 074°08'0 0.0
2015-Jul-16 07:33N 40°41' W 074°08'0 0.0
2015-Jul-16 06:33N 40°41' W 074°08'0 0.0
2015-Jul-16 05:33N 40°41' W 074°08'0 0.0
2015-Jul-16 04:33N 40°41' W 074°08'0 0.0
2015-Jul-16 03:33N 40°41' W 074°08'0 0.0
2015-Jul-16 02:33N 40°41' W 074°08'0 0.0
2015-Jul-16 01:33N 40°41' W 074°08'0 0.0
2015-Jul-16 00:33N 40°41' W 074°08'3 2.6
2015-Jul-15 23:34N 40°39' W 074°09'5 4.6
2015-Jul-15 22:34N 40°38' W 074°03'1010.4
2015-Jul-15 21:33N 40°29' W 073°55'8 7.5
2015-Jul-15 20:33N 40°24' W 073°47'9 8.9
2015-Jul-15 19:33N 40°16' W 073°46'1312.7
2015-Jul-15 18:33N 40°03' W 073°45'1211.8
2015-Jul-15 17:33N 39°51' W 073°43'1210.1
2015-Jul-15 16:24N 39°41' W 073°35'2 2.2
2015-Jul-15 15:33N 39°40' W 073°33'1615.7
2015-Jul-15 14:33N 39°25' W 073°39'1716.9
2015-Jul-15 13:31N 39°09' W 073°46'1917.5
2015-Jul-15 12:25N 38°49' W 073°50'1617.6
2015-Jul-15 11:31N 38°34' W 073°51'2217.4
2015-Jul-15 10:15N 38°12' W 073°54'26916.9
2015-Jul-14 18:19N 34°01' W 075°55'5419.3
2015-Jul-14 15:32N 33°25' W 076°43'  
2015-Jul-12 03:31N 28°14' W 078°41'1515.2
2015-Jul-12 02:31N 28°04' W 078°28'  
Track history (hours):
 
Tides and Currents Weather Stations Pressure Air Temp Water Temp Dewpoint Dewpoint Depression Visibility Wind Speed Wind Dir Waves Ship Positions

New Century 1

Last reported at 2015-Jul-17 11:17 UTC. Time now 2015-Jul-28 03:29 UTC.
Position N 37°46' W 071°28'.
Warning: this ship's position is 10 days out of date.

Length 200 m; beam 32.3 m.

Type: Cargo ship. MMSI: 355234000.

Date/timePositionNaut miles runAvg speedWind from/ knotsBaromVisibWave heightAir tempDewpointWater temp
2015-Jul-17 11:17N 37°46' W 071°28'1516.8
2015-Jul-17 10:24N 37°58' W 071°39'1617.5
2015-Jul-17 09:30N 38°11' W 071°50'1817.3
2015-Jul-17 08:26N 38°27' W 072°03'1517.3
2015-Jul-17 07:33N 38°40' W 072°14'1717.2
2015-Jul-17 06:34N 38°54' W 072°26'1717.2
2015-Jul-17 05:33N 39°08' W 072°38'1717.3
2015-Jul-17 04:33N 39°23' W 072°50'1717.2
2015-Jul-17 03:33N 39°37' W 073°02'1717.3
2015-Jul-17 02:34N 39°52' W 073°15'1717.4
2015-Jul-17 01:34N 40°06' W 073°28'1717.3
2015-Jul-17 00:34N 40°20' W 073°41'1212.3
2015-Jul-16 23:33N 40°28' W 073°53'1010.5
2015-Jul-16 22:33N 40°36' W 074°03'6 5.9
2015-Jul-16 21:33N 40°39' W 074°09'2 2.4
2015-Jul-16 20:33N 40°41' W 074°08'0 0.0
2015-Jul-16 19:33N 40°41' W 074°08'0 0.0
2015-Jul-16 18:33N 40°41' W 074°08'0 0.0
2015-Jul-16 17:30N 40°41' W 074°08'0 0.0
2015-Jul-16 16:33N 40°41' W 074°08'0 0.0
2015-Jul-16 15:33N 40°41' W 074°08'0 0.0
2015-Jul-16 14:33N 40°41' W 074°08'0 0.0
2015-Jul-16 13:33N 40°41' W 074°08'0 0.0
2015-Jul-16 12:33N 40°41' W 074°08'0 0.0
2015-Jul-16 11:33N 40°41' W 074°08'0 0.0
2015-Jul-16 10:30N 40°41' W 074°08'0 0.0
2015-Jul-16 09:33N 40°41' W 074°08'0 0.0
2015-Jul-16 08:33N 40°41' W 074°08'0 0.0
2015-Jul-16 07:33N 40°41' W 074°08'0 0.0
2015-Jul-16 06:33N 40°41' W 074°08'0 0.0
2015-Jul-16 05:33N 40°41' W 074°08'0 0.0
2015-Jul-16 04:33N 40°41' W 074°08'0 0.0
2015-Jul-16 03:33N 40°41' W 074°08'0 0.0
2015-Jul-16 02:33N 40°41' W 074°08'0 0.0
2015-Jul-16 01:33N 40°41' W 074°08'0 0.0
2015-Jul-16 00:33N 40°41' W 074°08'3 2.6
2015-Jul-15 23:34N 40°39' W 074°09'5 4.6
2015-Jul-15 22:34N 40°38' W 074°03'1010.4
2015-Jul-15 21:33N 40°29' W 073°55'8 7.5
2015-Jul-15 20:33N 40°24' W 073°47'9 8.9
2015-Jul-15 19:33N 40°16' W 073°46'1312.7
2015-Jul-15 18:33N 40°03' W 073°45'1211.8
2015-Jul-15 17:33N 39°51' W 073°43'1210.1
2015-Jul-15 16:24N 39°41' W 073°35'2 2.2
2015-Jul-15 15:33N 39°40' W 073°33'1615.7
2015-Jul-15 14:33N 39°25' W 073°39'1716.9
2015-Jul-15 13:31N 39°09' W 073°46'1917.5
2015-Jul-15 12:25N 38°49' W 073°50'1617.6
2015-Jul-15 11:31N 38°34' W 073°51'2217.4
2015-Jul-15 10:15N 38°12' W 073°54'26916.9
2015-Jul-14 18:19N 34°01' W 075°55'5419.3
2015-Jul-14 15:32N 33°25' W 076°43'  
2015-Jul-12 03:31N 28°14' W 078°41'1515.2
2015-Jul-12 02:31N 28°04' W 078°28'  

Dump ship's entire track history